createdAt,value
2019-02-06T00:00:35.875Z,13.15
2019-02-06T00:03:06.788Z,11.33
2019-02-06T00:05:37.610Z,12.90
2019-02-06T00:08:07.566Z,14.83
2019-02-06T00:10:38.210Z,13.53
2019-02-06T00:13:08.620Z,11.93
2019-02-06T00:15:40.486Z,12.43
2019-02-06T00:18:12.479Z,13.75
2019-02-06T00:20:44.496Z,13.65
2019-02-06T00:23:16.534Z,12.25
2019-02-06T00:25:48.374Z,12.78
2019-02-06T00:28:18.392Z,13.00
2019-02-06T00:30:49.618Z,12.28
2019-02-06T00:33:20.345Z,8.68
2019-02-06T00:35:54.391Z,11.33
2019-02-06T00:38:29.956Z,12.28
2019-02-06T00:41:00.902Z,10.28
2019-02-06T00:43:31.222Z,11.68
2019-02-06T00:46:03.270Z,11.78
2019-02-06T00:48:38.030Z,10.80
2019-02-06T00:51:07.754Z,12.10
2019-02-06T00:53:39.663Z,10.60
2019-02-06T00:56:10.642Z,10.93
2019-02-06T00:58:49.738Z,12.55
2019-02-06T01:01:21.546Z,10.38
2019-02-06T01:03:51.252Z,11.70
2019-02-06T01:06:23.183Z,10.15
2019-02-06T01:08:53.469Z,12.60
2019-02-06T01:11:25.386Z,10.23
2019-02-06T01:13:55.347Z,11.05
2019-02-06T01:16:26.198Z,9.60
2019-02-06T01:18:57.127Z,9.78
2019-02-06T01:21:33.078Z,9.00
2019-02-06T01:24:04.626Z,9.03
2019-02-06T01:26:39.515Z,10.60
2019-02-06T01:29:13.256Z,11.88
2019-02-06T01:31:44.298Z,11.90
2019-02-06T01:34:14.416Z,7.45
2019-02-06T01:36:45.210Z,9.65
2019-02-06T01:39:19.999Z,9.08
2019-02-06T01:41:51.722Z,8.63
2019-02-06T01:44:23.598Z,8.93
2019-02-06T01:46:55.407Z,10.13
2019-02-06T01:49:31.542Z,10.70
2019-02-06T01:52:07.775Z,9.23
2019-02-06T01:54:37.650Z,9.35
2019-02-06T01:57:07.622Z,11.33
2019-02-06T01:59:37.739Z,10.05
2019-02-06T02:02:15.751Z,8.15
2019-02-06T02:04:47.859Z,11.65
2019-02-06T02:07:19.170Z,10.43
2019-02-06T02:09:56.634Z,9.45
2019-02-06T02:12:27.562Z,10.05
2019-02-06T02:14:57.541Z,8.55
2019-02-06T02:17:27.690Z,10.43
2019-02-06T02:19:59.073Z,9.55
2019-02-06T02:22:29.382Z,12.10
2019-02-06T02:24:59.332Z,9.25
2019-02-06T02:27:29.182Z,10.45
2019-02-06T02:30:01.176Z,10.43
2019-02-06T02:32:32.332Z,9.65
2019-02-06T02:35:03.419Z,11.15
2019-02-06T02:37:39.075Z,10.00
2019-02-06T02:40:12.151Z,9.30
2019-02-06T02:42:47.710Z,11.85
2019-02-06T02:45:19.380Z,8.58
2019-02-06T02:47:51.431Z,8.38
2019-02-06T02:50:22.033Z,10.48
2019-02-06T02:52:52.931Z,10.25
2019-02-06T02:55:23.051Z,9.95
2019-02-06T02:57:53.846Z,9.05
2019-02-06T03:00:37.330Z,10.63
2019-02-06T03:03:08.678Z,8.85
2019-02-06T03:05:40.610Z,10.15
2019-02-06T03:08:16.559Z,9.23
2019-02-06T03:10:46.514Z,10.13
2019-02-06T03:13:17.438Z,7.47
2019-02-06T03:15:47.302Z,11.43
2019-02-06T03:18:17.002Z,10.00
2019-02-06T03:20:47.888Z,7.87
2019-02-06T03:23:23.482Z,10.23
2019-02-06T03:25:56.471Z,13.60
2019-02-06T03:28:37.243Z,12.05
2019-02-06T03:31:14.433Z,13.83
2019-02-06T03:33:57.575Z,10.10
2019-02-06T03:36:39.603Z,11.22
2019-02-06T03:38:59.330Z,10.70
2019-02-06T03:41:29.034Z,11.12
2019-02-06T03:44:00.969Z,10.82
2019-02-06T03:46:32.452Z,11.30
2019-02-06T03:49:03.370Z,11.28
2019-02-06T03:51:34.308Z,8.63
2019-02-06T03:54:06.525Z,10.68
2019-02-06T03:56:38.694Z,11.57
2019-02-06T03:59:11.001Z,10.80
2019-02-06T04:01:43.248Z,9.33
2019-02-06T04:04:17.358Z,10.30
2019-02-06T04:07:00.267Z,13.62
2019-02-06T04:09:36.565Z,10.38
2019-02-06T04:12:07.894Z,10.95
2019-02-06T04:14:37.732Z,8.88
2019-02-06T04:17:07.763Z,9.73
2019-02-06T04:19:38.858Z,10.32
2019-02-06T04:22:09.986Z,11.50
2019-02-06T04:24:39.838Z,9.50
2019-02-06T04:27:09.544Z,11.75
2019-02-06T04:29:46.418Z,11.73
2019-02-06T04:32:16.259Z,10.00
2019-02-06T04:34:51.362Z,11.15
2019-02-06T04:37:24.546Z,9.18
2019-02-06T04:40:01.399Z,10.28
2019-02-06T04:42:37.498Z,11.30
2019-02-06T04:45:11.596Z,10.65
2019-02-06T04:47:41.722Z,8.68
2019-02-06T04:50:15.234Z,11.65
2019-02-06T04:52:45.195Z,13.00
2019-02-06T04:55:16.987Z,8.40
2019-02-06T04:58:00.198Z,11.55
2019-02-06T05:00:30.073Z,12.33
2019-02-06T05:03:01.162Z,12.20
2019-02-06T05:05:31.927Z,11.08
2019-02-06T05:08:02.845Z,10.68
2019-02-06T05:10:32.942Z,12.95
2019-02-06T05:13:03.052Z,14.40
2019-02-06T05:15:37.165Z,10.80
2019-02-06T05:18:07.370Z,9.80
2019-02-06T05:20:38.992Z,11.25
2019-02-06T05:23:17.525Z,13.18
2019-02-06T05:25:47.439Z,11.18
2019-02-06T05:28:19.103Z,9.65
2019-02-06T05:30:50.057Z,12.18
2019-02-06T05:33:20.180Z,10.98
2019-02-06T05:36:00.651Z,7.62
2019-02-06T05:38:30.767Z,8.95
2019-02-06T05:41:01.818Z,13.55
2019-02-06T05:43:31.938Z,10.50
2019-02-06T05:46:02.078Z,11.93
2019-02-06T05:48:32.286Z,12.33
2019-02-06T05:51:02.359Z,11.12
2019-02-06T05:53:32.600Z,10.38
2019-02-06T05:56:11.700Z,12.30
2019-02-06T05:58:42.759Z,8.05
2019-02-06T06:01:14.374Z,10.70
2019-02-06T06:03:44.262Z,12.82
2019-02-06T06:06:13.960Z,11.93
2019-02-06T06:08:44.878Z,10.43
2019-02-06T06:11:16.710Z,12.33
2019-02-06T06:13:50.360Z,11.63
2019-02-06T06:16:20.450Z,9.83
2019-02-06T06:18:51.515Z,10.80
2019-02-06T06:21:21.638Z,11.28
2019-02-06T06:23:51.746Z,11.60
2019-02-06T06:26:21.847Z,10.90
2019-02-06T06:28:52.907Z,8.53
2019-02-06T06:31:23.007Z,13.08
2019-02-06T06:34:08.186Z,11.35
2019-02-06T06:36:38.296Z,12.93
2019-02-06T06:39:10.131Z,7.72
2019-02-06T06:41:40.435Z,10.78
2019-02-06T06:44:10.530Z,10.93
2019-02-06T06:46:40.636Z,10.65
2019-02-06T06:49:10.741Z,10.98
2019-02-06T06:51:40.646Z,10.00
2019-02-06T06:54:10.414Z,8.43
2019-02-06T06:56:40.418Z,13.45
2019-02-06T06:59:10.262Z,12.10
2019-02-06T07:01:41.317Z,13.10
2019-02-06T07:04:11.408Z,11.43
2019-02-06T07:06:54.118Z,11.97
2019-02-06T07:09:24.100Z,9.65
2019-02-06T07:11:54.274Z,11.60
2019-02-06T07:14:25.337Z,12.45
2019-02-06T07:17:02.251Z,11.85
2019-02-06T07:19:32.334Z,15.23
2019-02-06T07:22:09.231Z,9.70
2019-02-06T07:24:39.999Z,13.30
2019-02-06T07:27:15.855Z,14.98
2019-02-06T07:29:45.830Z,11.65
2019-02-06T07:32:16.162Z,11.40
2019-02-06T07:34:47.084Z,13.93
2019-02-06T07:37:16.922Z,12.63
2019-02-06T07:39:46.638Z,15.55
2019-02-06T07:42:16.323Z,13.00
2019-02-06T07:44:46.022Z,16.15
2019-02-06T07:47:15.903Z,14.80
2019-02-06T07:49:45.607Z,11.68
2019-02-06T07:52:16.206Z,14.60
2019-02-06T07:54:45.918Z,14.87
2019-02-06T07:57:16.578Z,16.90
2019-02-06T07:59:46.290Z,15.03
2019-02-06T08:02:16.014Z,14.40
2019-02-06T08:04:45.734Z,13.75
2019-02-06T08:07:15.446Z,15.40
2019-02-06T08:09:45.128Z,13.90
2019-02-06T08:12:14.844Z,13.25
2019-02-06T08:14:44.542Z,17.23
2019-02-06T08:17:14.254Z,15.75
2019-02-06T08:19:43.993Z,15.23
2019-02-06T08:22:13.766Z,15.72
2019-02-06T08:24:43.603Z,15.83
2019-02-06T08:27:15.182Z,12.53
2019-02-06T08:29:45.001Z,16.62
2019-02-06T08:32:14.703Z,14.45
2019-02-06T08:34:44.395Z,15.00
2019-02-06T08:37:14.086Z,13.58
2019-02-06T08:39:43.810Z,13.75
2019-02-06T08:42:13.534Z,15.48
2019-02-06T08:44:43.602Z,15.30
2019-02-06T08:47:14.130Z,14.78
2019-02-06T08:49:44.770Z,13.18
2019-02-06T08:52:14.462Z,18.50
2019-02-06T08:54:44.422Z,13.75
2019-02-06T08:57:14.182Z,16.37
2019-02-06T08:59:49.970Z,17.23
2019-02-06T09:02:19.678Z,17.12
2019-02-06T09:04:55.868Z,14.70
2019-02-06T09:07:22.755Z,14.10
2019-02-06T09:09:52.462Z,14.73
2019-02-06T09:12:22.899Z,15.95
2019-02-06T09:14:52.810Z,12.85
2019-02-06T09:17:22.510Z,16.90
2019-02-06T09:19:52.218Z,12.70
2019-02-06T09:22:21.911Z,14.63
2019-02-06T09:24:51.642Z,17.98
2019-02-06T09:27:21.714Z,14.55
2019-02-06T09:29:51.410Z,14.33
2019-02-06T09:32:21.116Z,15.72
2019-02-06T09:34:50.818Z,15.72
2019-02-06T09:37:20.514Z,12.82
2019-02-06T09:39:53.507Z,15.32
2019-02-06T09:42:24.386Z,16.73
2019-02-06T09:44:54.428Z,14.75
2019-02-06T09:47:24.546Z,14.18
2019-02-06T09:49:54.640Z,14.35
2019-02-06T09:52:28.118Z,14.05
2019-02-06T09:55:09.019Z,14.63
2019-02-06T09:57:41.008Z,16.55
2019-02-06T10:00:24.714Z,14.18
2019-02-06T10:02:54.598Z,14.70
2019-02-06T10:05:25.119Z,15.93
2019-02-06T10:07:56.361Z,15.30
2019-02-06T10:10:28.706Z,14.53
2019-02-06T10:13:04.778Z,13.38
2019-02-06T10:15:37.782Z,15.55
2019-02-06T10:18:11.042Z,12.90
2019-02-06T10:20:43.738Z,13.93
2019-02-06T10:23:13.506Z,16.05
2019-02-06T10:25:43.548Z,14.50
2019-02-06T10:28:14.750Z,16.45
2019-02-06T10:30:48.259Z,15.43
2019-02-06T10:33:19.017Z,13.72
2019-02-06T10:35:52.363Z,14.20
2019-02-06T10:38:23.703Z,13.35
2019-02-06T10:40:55.824Z,14.58
2019-02-06T10:43:32.204Z,14.38
2019-02-06T10:45:59.708Z,14.23
2019-02-06T10:48:34.862Z,15.00
2019-02-06T10:51:04.835Z,13.10
2019-02-06T10:53:40.447Z,12.78
2019-02-06T10:56:10.417Z,14.18
2019-02-06T10:58:40.520Z,11.97
2019-02-06T11:01:10.627Z,12.40
2019-02-06T11:03:40.748Z,15.13
2019-02-06T11:06:10.703Z,15.55
2019-02-06T11:08:48.800Z,13.25
2019-02-06T11:11:20.523Z,12.60
2019-02-06T11:14:08.907Z,12.82
2019-02-06T11:16:41.959Z,12.55
2019-02-06T11:19:12.062Z,13.88
2019-02-06T11:21:42.171Z,13.05
2019-02-06T11:24:12.011Z,13.45
2019-02-06T11:26:43.996Z,12.23
2019-02-06T11:29:14.979Z,13.90
2019-02-06T11:31:48.975Z,13.43
2019-02-06T11:34:24.874Z,14.15
2019-02-06T11:36:58.851Z,12.10
2019-02-06T11:39:29.507Z,13.08
2019-02-06T11:42:03.751Z,11.68
2019-02-06T11:44:34.180Z,10.23
2019-02-06T11:47:06.431Z,10.80
2019-02-06T11:49:37.335Z,12.25
2019-02-06T11:52:07.539Z,12.95
2019-02-06T11:54:39.535Z,14.43
2019-02-06T11:57:09.639Z,12.03
2019-02-06T11:59:39.732Z,13.45
2019-02-06T12:02:13.651Z,12.80
2019-02-06T12:04:45.240Z,12.68
2019-02-06T12:07:15.007Z,13.95
2019-02-06T12:09:55.941Z,14.60
2019-02-06T12:12:28.011Z,13.10
2019-02-06T12:14:58.109Z,11.73
2019-02-06T12:17:29.518Z,12.25
2019-02-06T12:20:21.742Z,13.13
2019-02-06T12:22:51.590Z,13.40
2019-02-06T12:25:21.445Z,13.83
2019-02-06T12:27:56.943Z,16.02
2019-02-06T12:30:29.931Z,13.18
2019-02-06T12:32:59.887Z,13.03
2019-02-06T12:35:30.235Z,10.70
2019-02-06T12:38:00.570Z,12.43
2019-02-06T12:40:32.603Z,12.90
2019-02-06T12:43:03.714Z,12.95
2019-02-06T12:45:35.196Z,14.43
2019-02-06T12:48:05.987Z,13.15
2019-02-06T12:50:50.104Z,13.32
2019-02-06T12:53:21.384Z,11.88
2019-02-06T12:55:52.449Z,13.13
2019-02-06T12:58:26.206Z,12.93
2019-02-06T13:00:56.392Z,10.63
2019-02-06T13:03:27.099Z,13.40
2019-02-06T13:05:57.165Z,11.90
2019-02-06T13:08:26.995Z,10.93
2019-02-06T13:10:57.257Z,11.83
2019-02-06T13:13:37.315Z,11.18
2019-02-06T13:16:11.066Z,11.03
2019-02-06T13:18:46.638Z,10.88
2019-02-06T13:21:16.327Z,12.15
2019-02-06T13:23:46.035Z,11.10
2019-02-06T13:26:15.723Z,12.60
2019-02-06T13:28:45.406Z,12.60
2019-02-06T13:31:15.155Z,12.13
2019-02-06T13:33:45.127Z,11.45
2019-02-06T13:36:15.027Z,12.28
2019-02-06T13:38:45.960Z,10.72
2019-02-06T13:41:15.802Z,12.93
2019-02-06T13:43:45.773Z,10.70
2019-02-06T13:46:15.613Z,11.22
2019-02-06T13:48:52.643Z,12.00
2019-02-06T13:51:30.808Z,13.28
2019-02-06T13:54:00.659Z,12.43
2019-02-06T13:56:31.299Z,12.95
2019-02-06T13:59:01.031Z,11.33
2019-02-06T14:01:37.859Z,11.88
2019-02-06T14:04:07.694Z,11.30
2019-02-06T14:06:37.664Z,11.40
2019-02-06T14:09:09.231Z,11.93
2019-02-06T14:11:38.923Z,11.05
2019-02-06T14:14:08.889Z,12.07
2019-02-06T14:16:39.885Z,11.18
2019-02-06T14:19:11.955Z,10.95
2019-02-06T14:21:57.880Z,12.35
2019-02-06T14:24:30.666Z,11.70
2019-02-06T14:27:08.987Z,12.45
2019-02-06T14:30:18.156Z,12.78
2019-02-06T14:33:20.073Z,10.63
2019-02-06T14:36:22.876Z,11.08
2019-02-06T14:39:19.898Z,9.50
2019-02-06T14:42:10.251Z,10.82
2019-02-06T14:45:03.107Z,11.03
2019-02-06T14:47:43.182Z,11.50
2019-02-06T14:50:36.000Z,10.65
2019-02-06T14:53:40.551Z,11.08
2019-02-06T14:56:23.863Z,8.58
2019-02-06T14:59:28.274Z,11.65
2019-02-06T15:02:09.732Z,10.65
2019-02-06T15:05:04.210Z,11.18
2019-02-06T15:07:47.576Z,10.53
2019-02-06T15:10:26.123Z,10.30
2019-02-06T15:13:06.659Z,11.68
2019-02-06T15:16:00.488Z,9.55
2019-02-06T15:18:53.229Z,10.30
2019-02-06T15:21:43.999Z,11.50
2019-02-06T15:24:33.883Z,10.30
2019-02-06T15:27:21.261Z,8.75
2019-02-06T15:30:15.793Z,10.20
2019-02-06T15:33:21.552Z,9.35
2019-02-06T15:36:39.271Z,8.08
2019-02-06T15:39:54.709Z,11.88
2019-02-06T15:42:47.143Z,11.33
2019-02-06T15:45:29.003Z,11.22
2019-02-06T15:48:24.809Z,9.90
2019-02-06T15:51:18.475Z,9.95
2019-02-06T15:54:21.813Z,9.78
2019-02-06T15:57:21.990Z,11.08
2019-02-06T16:00:29.935Z,10.70
2019-02-06T16:03:19.527Z,9.55
2019-02-06T16:09:44.376Z,10.55
2019-02-06T16:12:34.239Z,8.43
2019-02-06T16:15:09.807Z,8.60
2019-02-06T16:17:51.330Z,8.75
2019-02-06T16:20:53.396Z,10.32
2019-02-06T16:23:45.959Z,10.18
2019-02-06T16:26:47.003Z,9.63
2019-02-06T16:29:47.269Z,9.43
2019-02-06T16:32:33.846Z,10.00
2019-02-06T16:35:16.515Z,8.50
2019-02-06T16:38:02.672Z,8.93
2019-02-06T16:41:11.800Z,9.45
2019-02-06T16:44:02.156Z,8.95
2019-02-06T16:47:05.223Z,10.10
2019-02-06T16:49:58.395Z,10.35
2019-02-06T16:52:53.247Z,10.38
2019-02-06T16:56:05.091Z,7.75
2019-02-06T16:58:49.469Z,8.05
2019-02-06T17:01:56.836Z,7.45
2019-02-06T17:05:04.499Z,8.53
2019-02-06T17:07:59.989Z,7.65
2019-02-06T17:11:25.323Z,8.25
2019-02-06T17:14:20.854Z,9.18
2019-02-06T17:17:20.803Z,7.90
2019-02-06T17:20:49.399Z,10.38
2019-02-06T17:23:33.027Z,9.03
2019-02-06T17:26:28.201Z,9.68
2019-02-06T17:29:12.293Z,6.83
2019-02-06T17:32:07.043Z,7.37
2019-02-06T17:34:55.932Z,8.95
2019-02-06T17:37:32.571Z,9.98
2019-02-06T17:40:16.107Z,8.88
2019-02-06T17:43:13.451Z,7.83
2019-02-06T17:46:05.140Z,7.17
2019-02-06T17:49:03.428Z,8.20
2019-02-06T17:51:44.403Z,9.08
2019-02-06T17:54:20.251Z,9.08
2019-02-06T17:56:50.519Z,8.58
2019-02-06T17:59:27.915Z,9.50
2019-02-06T18:01:58.805Z,8.85
2019-02-06T18:04:30.635Z,9.53
2019-02-06T18:07:00.343Z,8.60
2019-02-06T18:09:30.119Z,9.70
2019-02-06T18:12:01.171Z,8.75
2019-02-06T18:14:31.994Z,8.30
2019-02-06T18:17:05.227Z,8.38
2019-02-06T18:19:38.175Z,6.85
2019-02-06T18:22:14.403Z,7.97
2019-02-06T18:24:45.083Z,7.75
2019-02-06T18:27:20.960Z,8.10
2019-02-06T18:29:51.003Z,8.15
2019-02-06T18:32:21.331Z,8.75
2019-02-06T18:34:51.559Z,9.78
2019-02-06T18:37:22.407Z,8.80
2019-02-06T18:39:54.431Z,8.83
2019-02-06T18:42:36.994Z,8.30
2019-02-06T18:45:02.924Z,10.82
2019-02-06T18:47:35.454Z,9.88
2019-02-06T18:50:24.617Z,9.45
2019-02-06T18:52:55.588Z,7.47
2019-02-06T18:55:25.287Z,7.40
2019-02-06T18:57:55.423Z,9.90
2019-02-06T19:00:37.085Z,8.33
2019-02-06T19:03:21.912Z,6.78
2019-02-06T19:05:52.050Z,7.08
2019-02-06T19:08:25.514Z,8.65
2019-02-06T19:10:55.697Z,8.15
2019-02-06T19:13:25.543Z,5.85
2019-02-06T19:15:56.746Z,8.23
2019-02-06T19:18:28.511Z,7.28
2019-02-06T19:21:05.408Z,9.95
2019-02-06T19:23:44.153Z,5.78
2019-02-06T19:26:14.003Z,6.30
2019-02-06T19:28:50.933Z,7.37
2019-02-06T19:31:21.064Z,9.00
2019-02-06T19:33:57.707Z,6.20
2019-02-06T19:36:27.973Z,5.17
2019-02-06T19:38:58.136Z,7.95
2019-02-06T19:41:30.229Z,7.35
2019-02-06T19:44:02.039Z,6.67
2019-02-06T19:46:32.951Z,6.12
2019-02-06T19:49:02.816Z,6.87
2019-02-06T19:51:32.517Z,7.58
2019-02-06T19:54:03.135Z,8.80
2019-02-06T19:56:34.803Z,7.58
2019-02-06T19:59:05.322Z,9.53
2019-02-06T20:01:35.512Z,8.58
2019-02-06T20:04:07.733Z,8.65
2019-02-06T20:06:37.831Z,8.40
2019-02-06T20:09:08.083Z,8.98
2019-02-06T20:11:40.058Z,8.35
2019-02-06T20:14:10.454Z,8.75
2019-02-06T20:16:40.343Z,9.20
2019-02-06T20:19:10.057Z,7.50
2019-02-06T20:21:40.120Z,7.97
2019-02-06T20:24:10.859Z,8.55
2019-02-06T20:26:40.623Z,6.83
2019-02-06T20:29:11.514Z,6.67
2019-02-06T20:31:41.351Z,8.48
2019-02-06T20:34:11.399Z,8.28
2019-02-06T20:36:41.243Z,6.75
2019-02-06T20:39:12.931Z,9.05
2019-02-06T20:41:42.909Z,7.55
2019-02-06T20:44:12.759Z,6.35
2019-02-06T20:46:42.479Z,7.75
2019-02-06T20:49:13.382Z,5.80
2019-02-06T20:51:43.549Z,8.30
2019-02-06T20:54:13.564Z,6.20
2019-02-06T20:56:43.283Z,6.50
2019-02-06T20:59:12.983Z,8.10
2019-02-06T21:01:43.203Z,7.60
2019-02-06T21:04:13.064Z,7.85
2019-02-06T21:06:43.763Z,7.60
2019-02-06T21:09:14.703Z,7.40
2019-02-06T21:11:44.404Z,10.23
2019-02-06T21:14:14.119Z,7.55
2019-02-06T21:16:44.120Z,9.63
2019-02-06T21:19:14.743Z,8.08
2019-02-06T21:21:44.441Z,8.55
2019-02-06T21:24:14.160Z,8.03
2019-02-06T21:26:44.788Z,8.70
2019-02-06T21:29:14.604Z,10.20
2019-02-06T21:31:44.340Z,9.30
2019-02-06T21:34:25.997Z,9.33
2019-02-06T21:36:57.684Z,6.60
2019-02-06T21:39:28.284Z,9.33
2019-02-06T21:41:58.108Z,10.05
2019-02-06T21:44:27.835Z,8.05
2019-02-06T21:46:58.536Z,7.15
2019-02-06T21:49:28.613Z,8.85
2019-02-06T21:51:58.323Z,7.90
2019-02-06T21:54:28.984Z,6.25
2019-02-06T21:57:00.644Z,8.58
2019-02-06T21:59:30.716Z,8.00
2019-02-06T22:02:00.535Z,8.03
2019-02-06T22:04:30.233Z,7.75
2019-02-06T22:06:59.971Z,9.60
2019-02-06T22:09:30.624Z,6.97
2019-02-06T22:12:00.335Z,7.50
2019-02-06T22:14:30.781Z,10.23
2019-02-06T22:17:01.735Z,6.80
2019-02-06T22:19:33.355Z,7.33
2019-02-06T22:22:04.004Z,8.63
2019-02-06T22:24:35.652Z,7.95
2019-02-06T22:27:05.621Z,8.08
2019-02-06T22:29:36.396Z,6.72
2019-02-06T22:32:06.187Z,7.72
2019-02-06T22:34:38.028Z,8.25
2019-02-06T22:37:08.896Z,8.95
2019-02-06T22:39:40.803Z,7.65
2019-02-06T22:42:12.858Z,8.70
2019-02-06T22:44:43.925Z,6.67
2019-02-06T22:47:18.788Z,7.67
2019-02-06T22:49:48.747Z,8.35
2019-02-06T22:52:18.932Z,8.08
2019-02-06T22:54:51.035Z,7.90
2019-02-06T22:57:20.902Z,7.75
2019-02-06T22:59:52.564Z,8.35
2019-02-06T23:02:22.264Z,4.87
2019-02-06T23:04:51.960Z,7.55
2019-02-06T23:07:27.588Z,9.25
2019-02-06T23:09:59.348Z,7.28
2019-02-06T23:12:29.112Z,6.42
2019-02-06T23:14:58.820Z,9.48
2019-02-06T23:17:31.600Z,9.58
2019-02-06T23:20:02.279Z,6.62
2019-02-06T23:22:32.292Z,8.78
2019-02-06T23:25:02.263Z,6.30
2019-02-06T23:27:32.365Z,10.23
2019-02-06T23:30:02.669Z,7.58
2019-02-06T23:32:32.588Z,8.43
2019-02-06T23:35:02.697Z,6.35
2019-02-06T23:37:36.680Z,8.30
2019-02-06T23:40:15.113Z,8.30
2019-02-06T23:42:45.204Z,7.85
2019-02-06T23:45:16.031Z,5.67
2019-02-06T23:47:45.917Z,6.40
2019-02-06T23:50:16.976Z,6.35
2019-02-06T23:52:46.704Z,8.45
2019-02-06T23:55:16.468Z,7.40
2019-02-06T23:57:46.176Z,7.53
